sensor_id;sensor_type;location;lat;lon;timestamp;pressure;altitude;pressure_sealevel;temperature;humidity
2339;BME280;1180;51.438;6.978;2023-04-29T00:01:18;99983.50;;;14.64;100.00
2339;BME280;1180;51.438;6.978;2023-04-29T00:03:44;99973.91;;;14.54;100.00
2339;BME280;1180;51.438;6.978;2023-04-29T00:06:09;99976.78;;;14.40;100.00
2339;BME280;1180;51.438;6.978;2023-04-29T00:08:35;99977.78;;;14.27;100.00
2339;BME280;1180;51.438;6.978;2023-04-29T00:11:01;99978.06;;;14.46;100.00
2339;BME280;1180;51.438;6.978;2023-04-29T00:13:27;99983.44;;;14.54;100.00
2339;BME280;1180;51.438;6.978;2023-04-29T00:15:52;99987.47;;;14.47;100.00
2339;BME280;1180;51.438;6.978;2023-04-29T00:18:18;99989.75;;;14.61;100.00
2339;BME280;1180;51.438;6.978;2023-04-29T00:20:43;99989.28;;;14.56;100.00
2339;BME280;1180;51.438;6.978;2023-04-29T00:23:08;99992.63;;;14.47;100.00
2339;BME280;1180;51.438;6.978;2023-04-29T00:25:34;99999.41;;;14.48;100.00
2339;BME280;1180;51.438;6.978;2023-04-29T00:27:59;100003.50;;;14.50;100.00
2339;BME280;1180;51.438;6.978;2023-04-29T00:30:27;100000.47;;;14.45;100.00
2339;BME280;1180;51.438;6.978;2023-04-29T00:32:53;100007.19;;;14.36;100.00
2339;BME280;1180;51.438;6.978;2023-04-29T00:35:19;100010.53;;;14.15;100.00
2339;BME280;1180;51.438;6.978;2023-04-29T00:37:44;100019.44;;;14.23;100.00
2339;BME280;1180;51.438;6.978;2023-04-29T00:40:10;100019.66;;;14.08;100.00
2339;BME280;1180;51.438;6.978;2023-04-29T00:42:39;100017.25;;;13.95;100.00
2339;BME280;1180;51.438;6.978;2023-04-29T00:45:05;100026.84;;;14.05;100.00
2339;BME280;1180;51.438;6.978;2023-04-29T00:47:31;100021.78;;;14.03;100.00
2339;BME280;1180;51.438;6.978;2023-04-29T00:49:56;100024.72;;;14.10;100.00
2339;BME280;1180;51.438;6.978;2023-04-29T00:52:21;100022.41;;;13.95;100.00
2339;BME280;1180;51.438;6.978;2023-04-29T00:54:49;100035.06;;;13.98;100.00
2339;BME280;1180;51.438;6.978;2023-04-29T00:57:14;100033.66;;;13.83;100.00
2339;BME280;1180;51.438;6.978;2023-04-29T00:59:40;100030.94;;;13.73;100.00
2339;BME280;1180;51.438;6.978;2023-04-29T01:02:05;100036.00;;;13.75;100.00
2339;BME280;1180;51.438;6.978;2023-04-29T01:04:31;100041.50;;;13.93;100.00
2339;BME280;1180;51.438;6.978;2023-04-29T01:07:08;100035.06;;;13.98;100.00
2339;BME280;1180;51.438;6.978;2023-04-29T01:10:18;100045.25;;;14.00;100.00
2339;BME280;1180;51.438;6.978;2023-04-29T01:15:21;100052.41;;;13.62;100.00
2339;BME280;1180;51.438;6.978;2023-04-29T01:18:04;100056.13;;;13.58;100.00
2339;BME280;1180;51.438;6.978;2023-04-29T01:20:33;100055.09;;;13.49;100.00
2339;BME280;1180;51.438;6.978;2023-04-29T01:22:59;100054.63;;;13.55;100.00
2339;BME280;1180;51.438;6.978;2023-04-29T01:25:24;100050.22;;;13.33;100.00
2339;BME280;1180;51.438;6.978;2023-04-29T01:28:13;100058.72;;;13.58;100.00
2339;BME280;1180;51.438;6.978;2023-04-29T01:33:32;100062.34;;;13.55;100.00
2339;BME280;1180;51.438;6.978;2023-04-29T01:36:13;100062.50;;;13.65;100.00
2339;BME280;1180;51.438;6.978;2023-04-29T01:39:19;100063.53;;;13.74;100.00
2339;BME280;1180;51.438;6.978;2023-04-29T01:41:58;100063.19;;;13.79;100.00
2339;BME280;1180;51.438;6.978;2023-04-29T01:44:28;100067.97;;;13.72;100.00
2339;BME280;1180;51.438;6.978;2023-04-29T01:46:53;100070.34;;;13.64;100.00
2339;BME280;1180;51.438;6.978;2023-04-29T01:49:23;100073.47;;;13.56;100.00
2339;BME280;1180;51.438;6.978;2023-04-29T01:51:48;100070.09;;;13.67;100.00
2339;BME280;1180;51.438;6.978;2023-04-29T01:54:14;100075.28;;;13.78;100.00
2339;BME280;1180;51.438;6.978;2023-04-29T01:56:39;100077.59;;;13.70;100.00
2339;BME280;1180;51.438;6.978;2023-04-29T01:59:04;100077.34;;;13.73;100.00
2339;BME280;1180;51.438;6.978;2023-04-29T02:01:30;100080.63;;;13.52;100.00
2339;BME280;1180;51.438;6.978;2023-04-29T02:03:55;100082.75;;;13.47;100.00
2339;BME280;1180;51.438;6.978;2023-04-29T02:06:21;100087.56;;;13.27;100.00
2339;BME280;1180;51.438;6.978;2023-04-29T02:08:46;100090.06;;;12.80;100.00
2339;BME280;1180;51.438;6.978;2023-04-29T02:11:12;100092.41;;;12.22;100.00
2339;BME280;1180;51.438;6.978;2023-04-29T02:13:37;100092.81;;;12.28;100.00
2339;BME280;1180;51.438;6.978;2023-04-29T02:16:10;100096.31;;;12.27;100.00
2339;BME280;1180;51.438;6.978;2023-04-29T02:18:36;100102.88;;;12.45;100.00
2339;BME280;1180;51.438;6.978;2023-04-29T02:21:02;100101.03;;;12.71;100.00
2339;BME280;1180;51.438;6.978;2023-04-29T02:23:28;100102.75;;;12.70;100.00
2339;BME280;1180;51.438;6.978;2023-04-29T02:25:53;100101.25;;;12.92;100.00
2339;BME280;1180;51.438;6.978;2023-04-29T02:28:19;100104.31;;;12.97;100.00
2339;BME280;1180;51.438;6.978;2023-04-29T02:30:44;100107.50;;;13.01;100.00
2339;BME280;1180;51.438;6.978;2023-04-29T02:33:10;100116.69;;;12.92;100.00
2339;BME280;1180;51.438;6.978;2023-04-29T02:35:35;100113.69;;;12.74;100.00
2339;BME280;1180;51.438;6.978;2023-04-29T02:38:00;100114.44;;;12.88;100.00
2339;BME280;1180;51.438;6.978;2023-04-29T02:40:26;100121.09;;;12.79;100.00
2339;BME280;1180;51.438;6.978;2023-04-29T02:42:52;100126.28;;;12.66;100.00
2339;BME280;1180;51.438;6.978;2023-04-29T02:45:17;100123.53;;;12.80;100.00
2339;BME280;1180;51.438;6.978;2023-04-29T02:47:42;100127.75;;;12.57;100.00
2339;BME280;1180;51.438;6.978;2023-04-29T02:50:08;100125.56;;;12.64;100.00
2339;BME280;1180;51.438;6.978;2023-04-29T02:52:34;100133.31;;;12.88;100.00
2339;BME280;1180;51.438;6.978;2023-04-29T02:55:00;100132.69;;;13.09;100.00
2339;BME280;1180;51.438;6.978;2023-04-29T02:57:25;100133.53;;;13.09;100.00
2339;BME280;1180;51.438;6.978;2023-04-29T02:59:51;100138.06;;;13.06;100.00
2339;BME280;1180;51.438;6.978;2023-04-29T03:02:16;100137.34;;;13.04;100.00
2339;BME280;1180;51.438;6.978;2023-04-29T03:04:41;100141.47;;;13.06;100.00
2339;BME280;1180;51.438;6.978;2023-04-29T03:07:07;100149.03;;;12.96;100.00
2339;BME280;1180;51.438;6.978;2023-04-29T03:09:32;100147.97;;;12.75;100.00
2339;BME280;1180;51.438;6.978;2023-04-29T03:11:58;100150.59;;;12.62;100.00
2339;BME280;1180;51.438;6.978;2023-04-29T03:14:23;100147.59;;;12.68;100.00
2339;BME280;1180;51.438;6.978;2023-04-29T03:16:49;100149.47;;;12.90;100.00
2339;BME280;1180;51.438;6.978;2023-04-29T03:19:14;100146.22;;;12.75;100.00
2339;BME280;1180;51.438;6.978;2023-04-29T03:21:40;100151.91;;;12.92;100.00
2339;BME280;1180;51.438;6.978;2023-04-29T03:24:06;100157.84;;;12.81;100.00
2339;BME280;1180;51.438;6.978;2023-04-29T03:26:32;100164.69;;;12.69;100.00
2339;BME280;1180;51.438;6.978;2023-04-29T03:28:57;100162.31;;;12.66;100.00
2339;BME280;1180;51.438;6.978;2023-04-29T03:31:23;100165.31;;;12.60;100.00
2339;BME280;1180;51.438;6.978;2023-04-29T03:33:51;100165.41;;;12.71;100.00
2339;BME280;1180;51.438;6.978;2023-04-29T03:36:18;100168.69;;;12.73;100.00
2339;BME280;1180;51.438;6.978;2023-04-29T03:38:43;100169.50;;;12.74;100.00
2339;BME280;1180;51.438;6.978;2023-04-29T03:41:09;100167.81;;;12.35;100.00
2339;BME280;1180;51.438;6.978;2023-04-29T03:43:34;100165.41;;;12.58;100.00
2339;BME280;1180;51.438;6.978;2023-04-29T03:46:00;100174.84;;;12.70;100.00
2339;BME280;1180;51.438;6.978;2023-04-29T03:48:25;100174.69;;;12.61;100.00
2339;BME280;1180;51.438;6.978;2023-04-29T03:50:50;100169.34;;;12.64;100.00
2339;BME280;1180;51.438;6.978;2023-04-29T03:53:16;100168.22;;;12.55;100.00
2339;BME280;1180;51.438;6.978;2023-04-29T03:55:41;100172.63;;;12.66;100.00
2339;BME280;1180;51.438;6.978;2023-04-29T03:58:07;100168.25;;;12.79;100.00
2339;BME280;1180;51.438;6.978;2023-04-29T04:00:32;100176.56;;;12.96;100.00
2339;BME280;1180;51.438;6.978;2023-04-29T04:02:58;100174.78;;;12.96;100.00
2339;BME280;1180;51.438;6.978;2023-04-29T04:05:23;100174.25;;;12.80;100.00
2339;BME280;1180;51.438;6.978;2023-04-29T04:07:52;100179.50;;;12.65;100.00
2339;BME280;1180;51.438;6.978;2023-04-29T04:10:18;100183.16;;;12.87;100.00
2339;BME280;1180;51.438;6.978;2023-04-29T04:12:44;100190.91;;;12.87;100.00
2339;BME280;1180;51.438;6.978;2023-04-29T04:15:10;100195.47;;;12.57;100.00
2339;BME280;1180;51.438;6.978;2023-04-29T04:17:35;100195.91;;;12.51;100.00
2339;BME280;1180;51.438;6.978;2023-04-29T04:20:01;100195.41;;;12.46;100.00
2339;BME280;1180;51.438;6.978;2023-04-29T04:22:26;100200.13;;;12.39;100.00
2339;BME280;1180;51.438;6.978;2023-04-29T04:24:54;100200.25;;;12.51;100.00
2339;BME280;1180;51.438;6.978;2023-04-29T04:27:19;100206.81;;;12.55;100.00
2339;BME280;1180;51.438;6.978;2023-04-29T04:29:45;100208.97;;;12.48;100.00
2339;BME280;1180;51.438;6.978;2023-04-29T04:32:10;100213.53;;;12.32;100.00
2339;BME280;1180;51.438;6.978;2023-04-29T04:34:38;100211.03;;;12.04;100.00
2339;BME280;1180;51.438;6.978;2023-04-29T04:37:04;100216.25;;;11.90;100.00
2339;BME280;1180;51.438;6.978;2023-04-29T04:39:30;100222.63;;;11.97;100.00
2339;BME280;1180;51.438;6.978;2023-04-29T04:41:56;100224.75;;;11.90;100.00
2339;BME280;1180;51.438;6.978;2023-04-29T04:44:22;100227.53;;;11.87;100.00
2339;BME280;1180;51.438;6.978;2023-04-29T04:46:47;100228.16;;;11.78;100.00
2339;BME280;1180;51.438;6.978;2023-04-29T04:49:12;100231.88;;;11.87;100.00
2339;BME280;1180;51.438;6.978;2023-04-29T04:51:38;100229.88;;;12.05;100.00
2339;BME280;1180;51.438;6.978;2023-04-29T04:54:03;100235.84;;;12.18;100.00
2339;BME280;1180;51.438;6.978;2023-04-29T04:56:28;100229.19;;;12.28;100.00
2339;BME280;1180;51.438;6.978;2023-04-29T04:58:54;100240.91;;;12.33;100.00
2339;BME280;1180;51.438;6.978;2023-04-29T05:01:19;100246.44;;;12.65;100.00
2339;BME280;1180;51.438;6.978;2023-04-29T05:03:45;100250.22;;;12.85;100.00
2339;BME280;1180;51.438;6.978;2023-04-29T05:06:10;100244.81;;;12.64;100.00
2339;BME280;1180;51.438;6.978;2023-04-29T05:08:36;100250.06;;;12.50;100.00
2339;BME280;1180;51.438;6.978;2023-04-29T05:11:01;100260.47;;;12.48;100.00
2339;BME280;1180;51.438;6.978;2023-04-29T05:13:26;100248.31;;;12.37;100.00
2339;BME280;1180;51.438;6.978;2023-04-29T05:15:52;100256.94;;;12.62;100.00
2339;BME280;1180;51.438;6.978;2023-04-29T05:18:18;100256.75;;;12.52;100.00
2339;BME280;1180;51.438;6.978;2023-04-29T05:20:43;100260.25;;;12.51;100.00
2339;BME280;1180;51.438;6.978;2023-04-29T05:23:08;100260.75;;;12.69;100.00
2339;BME280;1180;51.438;6.978;2023-04-29T05:25:34;100263.75;;;12.37;100.00
2339;BME280;1180;51.438;6.978;2023-04-29T05:28:01;100274.56;;;12.30;100.00
2339;BME280;1180;51.438;6.978;2023-04-29T05:30:30;100271.88;;;12.31;100.00
2339;BME280;1180;51.438;6.978;2023-04-29T05:32:56;100281.56;;;12.27;100.00
2339;BME280;1180;51.438;6.978;2023-04-29T05:35:23;100277.41;;;12.12;100.00
2339;BME280;1180;51.438;6.978;2023-04-29T05:37:50;100283.84;;;12.45;100.00
2339;BME280;1180;51.438;6.978;2023-04-29T05:40:16;100285.25;;;12.36;100.00
2339;BME280;1180;51.438;6.978;2023-04-29T05:42:43;100285.25;;;12.36;100.00
2339;BME280;1180;51.438;6.978;2023-04-29T05:45:09;100293.38;;;12.30;100.00
2339;BME280;1180;51.438;6.978;2023-04-29T05:47:35;100295.84;;;12.19;100.00
2339;BME280;1180;51.438;6.978;2023-04-29T05:50:01;100298.22;;;12.22;100.00
2339;BME280;1180;51.438;6.978;2023-04-29T05:52:27;100298.94;;;12.24;100.00
2339;BME280;1180;51.438;6.978;2023-04-29T05:54:54;100304.91;;;12.24;100.00
2339;BME280;1180;51.438;6.978;2023-04-29T05:57:21;100310.44;;;12.18;100.00
2339;BME280;1180;51.438;6.978;2023-04-29T05:59:47;100314.72;;;12.45;100.00
2339;BME280;1180;51.438;6.978;2023-04-29T06:02:13;100317.31;;;12.58;100.00
2339;BME280;1180;51.438;6.978;2023-04-29T06:04:39;100314.22;;;12.53;100.00
2339;BME280;1180;51.438;6.978;2023-04-29T06:07:07;100328.22;;;12.62;100.00
2339;BME280;1180;51.438;6.978;2023-04-29T06:09:35;100331.00;;;12.46;100.00
2339;BME280;1180;51.438;6.978;2023-04-29T06:12:01;100324.75;;;12.22;100.00
2339;BME280;1180;51.438;6.978;2023-04-29T06:14:27;100328.06;;;12.24;100.00
2339;BME280;1180;51.438;6.978;2023-04-29T06:16:53;100338.25;;;12.26;100.00
2339;BME280;1180;51.438;6.978;2023-04-29T06:19:19;100339.38;;;12.22;100.00
2339;BME280;1180;51.438;6.978;2023-04-29T06:21:45;100347.19;;;12.20;100.00
2339;BME280;1180;51.438;6.978;2023-04-29T06:24:11;100343.53;;;12.37;100.00
2339;BME280;1180;51.438;6.978;2023-04-29T06:26:36;100339.22;;;12.51;100.00
2339;BME280;1180;51.438;6.978;2023-04-29T06:29:03;100351.38;;;12.75;100.00
2339;BME280;1180;51.438;6.978;2023-04-29T06:31:28;100363.25;;;12.77;100.00
2339;BME280;1180;51.438;6.978;2023-04-29T06:33:54;100360.56;;;12.53;100.00
2339;BME280;1180;51.438;6.978;2023-04-29T06:36:20;100368.88;;;12.69;100.00
2339;BME280;1180;51.438;6.978;2023-04-29T06:38:45;100368.59;;;12.74;100.00
2339;BME280;1180;51.438;6.978;2023-04-29T06:41:10;100373.25;;;12.95;100.00
2339;BME280;1180;51.438;6.978;2023-04-29T06:43:36;100367.25;;;13.07;100.00
2339;BME280;1180;51.438;6.978;2023-04-29T06:46:01;100369.53;;;12.99;100.00
2339;BME280;1180;51.438;6.978;2023-04-29T06:48:27;100373.25;;;12.95;100.00
2339;BME280;1180;51.438;6.978;2023-04-29T06:50:56;100378.28;;;12.83;100.00
2339;BME280;1180;51.438;6.978;2023-04-29T06:53:23;100377.78;;;12.91;100.00
2339;BME280;1180;51.438;6.978;2023-04-29T06:55:50;100381.47;;;13.00;100.00
2339;BME280;1180;51.438;6.978;2023-04-29T06:58:17;100384.25;;;12.84;100.00
2339;BME280;1180;51.438;6.978;2023-04-29T07:00:46;100386.63;;;12.87;100.00
2339;BME280;1180;51.438;6.978;2023-04-29T07:03:13;100387.56;;;12.86;100.00
2339;BME280;1180;51.438;6.978;2023-04-29T07:05:39;100387.94;;;12.54;100.00
2339;BME280;1180;51.438;6.978;2023-04-29T07:08:07;100390.41;;;12.55;100.00
2339;BME280;1180;51.438;6.978;2023-04-29T07:10:32;100390.84;;;12.75;100.00
2339;BME280;1180;51.438;6.978;2023-04-29T07:12:58;100392.81;;;12.84;100.00
2339;BME280;1180;51.438;6.978;2023-04-29T07:15:25;100404.16;;;12.95;100.00
2339;BME280;1180;51.438;6.978;2023-04-29T07:17:51;100398.88;;;12.96;100.00
2339;BME280;1180;51.438;6.978;2023-04-29T07:20:16;100411.25;;;12.91;100.00
2339;BME280;1180;51.438;6.978;2023-04-29T07:22:42;100417.84;;;12.82;100.00
2339;BME280;1180;51.438;6.978;2023-04-29T07:25:07;100419.78;;;12.92;100.00
2339;BME280;1180;51.438;6.978;2023-04-29T07:27:33;100425.78;;;12.92;100.00
2339;BME280;1180;51.438;6.978;2023-04-29T07:30:00;100427.84;;;13.00;100.00
2339;BME280;1180;51.438;6.978;2023-04-29T07:32:25;100438.84;;;12.76;100.00
2339;BME280;1180;51.438;6.978;2023-04-29T07:34:51;100444.88;;;12.62;100.00
2339;BME280;1180;51.438;6.978;2023-04-29T07:37:17;100440.75;;;12.47;100.00
2339;BME280;1180;51.438;6.978;2023-04-29T07:39:47;100443.41;;;12.18;100.00
2339;BME280;1180;51.438;6.978;2023-04-29T07:42:14;100449.69;;;12.13;100.00
2339;BME280;1180;51.438;6.978;2023-04-29T07:44:40;100452.72;;;12.06;100.00
2339;BME280;1180;51.438;6.978;2023-04-29T07:47:05;100458.59;;;12.08;100.00
2339;BME280;1180;51.438;6.978;2023-04-29T07:49:31;100459.19;;;12.26;100.00
2339;BME280;1180;51.438;6.978;2023-04-29T07:51:56;100462.81;;;12.36;100.00
2339;BME280;1180;51.438;6.978;2023-04-29T07:54:22;100464.97;;;12.30;100.00
2339;BME280;1180;51.438;6.978;2023-04-29T07:56:48;100456.91;;;12.21;100.00
2339;BME280;1180;51.438;6.978;2023-04-29T07:59:14;100463.91;;;12.47;100.00
2339;BME280;1180;51.438;6.978;2023-04-29T08:01:40;100467.97;;;12.09;100.00
2339;BME280;1180;51.438;6.978;2023-04-29T08:04:06;100468.69;;;12.11;100.00
2339;BME280;1180;51.438;6.978;2023-04-29T08:06:32;100477.63;;;11.91;100.00
2339;BME280;1180;51.438;6.978;2023-04-29T08:08:57;100477.34;;;11.95;100.00
2339;BME280;1180;51.438;6.978;2023-04-29T08:11:23;100487.00;;;11.77;100.00
2339;BME280;1180;51.438;6.978;2023-04-29T08:13:50;100482.22;;;11.85;100.00
2339;BME280;1180;51.438;6.978;2023-04-29T08:16:15;100481.28;;;11.72;100.00
2339;BME280;1180;51.438;6.978;2023-04-29T08:18:41;100482.75;;;11.91;100.00
2339;BME280;1180;51.438;6.978;2023-04-29T08:21:06;100490.09;;;11.97;100.00
2339;BME280;1180;51.438;6.978;2023-04-29T08:23:33;100487.09;;;12.05;100.00
2339;BME280;1180;51.438;6.978;2023-04-29T08:25:59;100494.25;;;11.85;100.00
2339;BME280;1180;51.438;6.978;2023-04-29T08:28:25;100498.00;;;11.65;100.00
2339;BME280;1180;51.438;6.978;2023-04-29T08:30:51;100499.66;;;11.66;100.00
2339;BME280;1180;51.438;6.978;2023-04-29T08:33:16;100506.00;;;11.75;100.00
2339;BME280;1180;51.438;6.978;2023-04-29T08:35:42;100503.53;;;11.88;100.00
2339;BME280;1180;51.438;6.978;2023-04-29T08:38:08;100504.34;;;11.88;100.00
2339;BME280;1180;51.438;6.978;2023-04-29T08:40:35;100518.69;;;11.78;100.00
2339;BME280;1180;51.438;6.978;2023-04-29T08:43:02;100510.78;;;11.66;100.00
2339;BME280;1180;51.438;6.978;2023-04-29T08:45:29;100510.84;;;11.36;100.00
2339;BME280;1180;51.438;6.978;2023-04-29T08:47:57;100515.19;;;11.64;100.00
2339;BME280;1180;51.438;6.978;2023-04-29T08:50:23;100519.13;;;11.55;100.00
2339;BME280;1180;51.438;6.978;2023-04-29T08:52:50;100523.47;;;11.69;100.00
2339;BME280;1180;51.438;6.978;2023-04-29T08:55:16;100524.81;;;11.90;100.00
2339;BME280;1180;51.438;6.978;2023-04-29T08:57:43;100527.38;;;11.75;100.00
2339;BME280;1180;51.438;6.978;2023-04-29T09:00:10;100534.38;;;11.88;100.00
2339;BME280;1180;51.438;6.978;2023-04-29T09:02:54;100526.22;;;11.95;100.00
2339;BME280;1180;51.438;6.978;2023-04-29T09:05:21;100535.94;;;11.76;100.00
2339;BME280;1180;51.438;6.978;2023-04-29T09:07:47;100531.44;;;11.65;100.00
2339;BME280;1180;51.438;6.978;2023-04-29T09:10:13;100540.34;;;11.74;100.00
2339;BME280;1180;51.438;6.978;2023-04-29T09:12:40;100535.00;;;11.91;100.00
2339;BME280;1180;51.438;6.978;2023-04-29T09:15:05;100544.94;;;11.68;100.00
2339;BME280;1180;51.438;6.978;2023-04-29T09:17:45;100550.06;;;11.83;100.00
2339;BME280;1180;51.438;6.978;2023-04-29T09:22:50;100550.25;;;11.80;100.00
2339;BME280;1180;51.438;6.978;2023-04-29T09:25:15;100556.34;;;11.93;100.00
2339;BME280;1180;51.438;6.978;2023-04-29T09:27:41;100554.16;;;12.02;100.00
2339;BME280;1180;51.438;6.978;2023-04-29T09:30:07;100560.00;;;12.18;100.00
2339;BME280;1180;51.438;6.978;2023-04-29T09:32:32;100563.50;;;12.32;100.00
2339;BME280;1180;51.438;6.978;2023-04-29T09:34:58;100568.03;;;12.55;100.00
2339;BME280;1180;51.438;6.978;2023-04-29T09:37:43;100572.03;;;12.47;100.00
2339;BME280;1180;51.438;6.978;2023-04-29T09:40:26;100571.63;;;12.53;100.00
2339;BME280;1180;51.438;6.978;2023-04-29T09:42:54;100572.97;;;12.59;100.00
2339;BME280;1180;51.438;6.978;2023-04-29T09:45:43;100568.72;;;12.45;100.00
2339;BME280;1180;51.438;6.978;2023-04-29T09:48:10;100568.53;;;12.48;100.00
2339;BME280;1180;51.438;6.978;2023-04-29T09:50:38;100571.28;;;12.45;100.00
2339;BME280;1180;51.438;6.978;2023-04-29T09:53:06;100575.69;;;12.42;100.00
2339;BME280;1180;51.438;6.978;2023-04-29T09:55:38;100573.91;;;12.57;100.00
2339;BME280;1180;51.438;6.978;2023-04-29T09:58:34;100581.22;;;12.78;100.00
2339;BME280;1180;51.438;6.978;2023-04-29T10:01:02;100583.84;;;12.91;100.00
2339;BME280;1180;51.438;6.978;2023-04-29T10:03:31;100582.06;;;12.92;99.91
2339;BME280;1180;51.438;6.978;2023-04-29T10:05:59;100580.34;;;12.92;100.00
2339;BME280;1180;51.438;6.978;2023-04-29T10:08:26;100586.94;;;12.69;100.00
2339;BME280;1180;51.438;6.978;2023-04-29T10:10:53;100584.66;;;12.92;100.00
2339;BME280;1180;51.438;6.978;2023-04-29T10:13:25;100592.00;;;12.98;100.00
2339;BME280;1180;51.438;6.978;2023-04-29T10:18:53;100590.13;;;13.27;98.74
2339;BME280;1180;51.438;6.978;2023-04-29T10:21:37;100591.16;;;13.38;97.09
2339;BME280;1180;51.438;6.978;2023-04-29T10:24:03;100592.25;;;13.21;99.16
2339;BME280;1180;51.438;6.978;2023-04-29T10:26:29;100590.69;;;13.58;98.86
2339;BME280;1180;51.438;6.978;2023-04-29T10:28:57;100590.69;;;13.58;96.46
2339;BME280;1180;51.438;6.978;2023-04-29T10:31:27;100595.34;;;13.66;94.76
2339;BME280;1180;51.438;6.978;2023-04-29T10:33:57;100592.66;;;13.81;94.75
2339;BME280;1180;51.438;6.978;2023-04-29T10:36:27;100594.81;;;13.87;94.91
2339;BME280;1180;51.438;6.978;2023-04-29T10:38:57;100600.59;;;13.78;92.65
2339;BME280;1180;51.438;6.978;2023-04-29T10:41:36;100591.09;;;13.91;93.56
2339;BME280;1180;51.438;6.978;2023-04-29T10:44:02;100598.50;;;14.22;93.62
2339;BME280;1180;51.438;6.978;2023-04-29T10:46:28;100600.84;;;14.38;91.40
2339;BME280;1180;51.438;6.978;2023-04-29T10:49:01;100594.97;;;14.73;90.31
2339;BME280;1180;51.438;6.978;2023-04-29T10:51:41;100601.03;;;14.48;87.98
2339;BME280;1180;51.438;6.978;2023-04-29T10:59:02;100610.78;;;14.68;89.17
2339;BME280;1180;51.438;6.978;2023-04-29T11:01:46;100606.03;;;14.62;86.52
2339;BME280;1180;51.438;6.978;2023-04-29T11:04:12;100603.19;;;14.91;86.15
2339;BME280;1180;51.438;6.978;2023-04-29T11:06:39;100611.38;;;15.21;85.75
2339;BME280;1180;51.438;6.978;2023-04-29T11:09:24;100613.31;;;15.30;85.56
2339;BME280;1180;51.438;6.978;2023-04-29T11:19:45;100615.69;;;15.44;82.51
2339;BME280;1180;51.438;6.978;2023-04-29T11:22:24;100609.03;;;15.65;83.90
2339;BME280;1180;51.438;6.978;2023-04-29T11:27:17;100613.38;;;15.17;83.21
2339;BME280;1180;51.438;6.978;2023-04-29T11:29:46;100614.19;;;15.42;84.93
2339;BME280;1180;51.438;6.978;2023-04-29T11:32:12;100611.28;;;15.69;82.76
2339;BME280;1180;51.438;6.978;2023-04-29T11:34:38;100613.50;;;15.74;82.07
2339;BME280;1180;51.438;6.978;2023-04-29T11:37:04;100622.41;;;15.94;81.83
2339;BME280;1180;51.438;6.978;2023-04-29T11:39:33;100615.34;;;16.08;79.82
2339;BME280;1180;51.438;6.978;2023-04-29T11:42:06;100608.03;;;16.24;79.84
2339;BME280;1180;51.438;6.978;2023-04-29T11:44:33;100611.56;;;16.12;79.29
2339;BME280;1180;51.438;6.978;2023-04-29T11:47:06;100620.41;;;16.09;79.96
2339;BME280;1180;51.438;6.978;2023-04-29T11:49:33;100618.59;;;15.76;80.16
2339;BME280;1180;51.438;6.978;2023-04-29T11:51:59;100629.72;;;15.53;81.24
2339;BME280;1180;51.438;6.978;2023-04-29T11:54:25;100626.09;;;15.67;80.85
2339;BME280;1180;51.438;6.978;2023-04-29T11:56:55;100622.88;;;16.11;79.41
2339;BME280;1180;51.438;6.978;2023-04-29T11:59:21;100624.50;;;16.12;78.12
2339;BME280;1180;51.438;6.978;2023-04-29T12:01:50;100623.78;;;16.44;78.90
2339;BME280;1180;51.438;6.978;2023-04-29T12:04:16;100617.16;;;16.51;76.50
2339;BME280;1180;51.438;6.978;2023-04-29T12:06:41;100616.28;;;15.95;77.64
2339;BME280;1180;51.438;6.978;2023-04-29T12:09:07;100618.75;;;16.20;78.78
2339;BME280;1180;51.438;6.978;2023-04-29T12:11:33;100610.69;;;16.57;77.68
2339;BME280;1180;51.438;6.978;2023-04-29T12:13:59;100621.50;;;16.62;75.13
2339;BME280;1180;51.438;6.978;2023-04-29T12:16:27;100623.66;;;16.57;74.80
2339;BME280;1180;51.438;6.978;2023-04-29T12:18:53;100620.38;;;16.43;75.47
2339;BME280;1180;51.438;6.978;2023-04-29T12:21:21;100621.16;;;16.67;76.82
2339;BME280;1180;51.438;6.978;2023-04-29T12:23:47;100624.28;;;16.82;75.56
2339;BME280;1180;51.438;6.978;2023-04-29T12:26:12;100616.63;;;16.92;76.50
2339;BME280;1180;51.438;6.978;2023-04-29T12:28:39;100624.00;;;16.64;74.01
2339;BME280;1180;51.438;6.978;2023-04-29T12:31:08;100625.59;;;16.76;73.85
2339;BME280;1180;51.438;6.978;2023-04-29T12:33:35;100623.81;;;16.33;73.80
2339;BME280;1180;51.438;6.978;2023-04-29T12:36:01;100624.75;;;15.97;74.64
2339;BME280;1180;51.438;6.978;2023-04-29T12:38:31;100626.59;;;15.84;76.75
2339;BME280;1180;51.438;6.978;2023-04-29T12:41:00;100626.16;;;16.01;75.17
2339;BME280;1180;51.438;6.978;2023-04-29T12:43:30;100630.16;;;16.06;75.91
2339;BME280;1180;51.438;6.978;2023-04-29T12:46:05;100630.50;;;16.35;76.17
2339;BME280;1180;51.438;6.978;2023-04-29T12:48:35;100624.03;;;16.29;73.63
2339;BME280;1180;51.438;6.978;2023-04-29T12:51:03;100628.38;;;16.29;73.11
2339;BME280;1180;51.438;6.978;2023-04-29T12:53:29;100620.50;;;16.42;73.14
2339;BME280;1180;51.438;6.978;2023-04-29T12:55:55;100621.88;;;16.57;73.01
2339;BME280;1180;51.438;6.978;2023-04-29T12:58:21;100621.16;;;16.67;72.84
2339;BME280;1180;51.438;6.978;2023-04-29T13:00:47;100619.72;;;16.74;74.04
2339;BME280;1180;51.438;6.978;2023-04-29T13:03:13;100620.09;;;16.58;72.79
2339;BME280;1180;51.438;6.978;2023-04-29T13:05:39;100626.47;;;16.54;71.80
2339;BME280;1180;51.438;6.978;2023-04-29T13:08:05;100629.22;;;16.29;71.54
2339;BME280;1180;51.438;6.978;2023-04-29T13:10:31;100623.00;;;16.21;71.12
2339;BME280;1180;51.438;6.978;2023-04-29T13:12:57;100625.13;;;16.15;71.03
2339;BME280;1180;51.438;6.978;2023-04-29T13:15:26;100637.94;;;16.06;70.76
2339;BME280;1180;51.438;6.978;2023-04-29T13:17:52;100638.56;;;15.85;70.62
2339;BME280;1180;51.438;6.978;2023-04-29T13:20:17;100639.28;;;15.76;70.80
2339;BME280;1180;51.438;6.978;2023-04-29T13:22:43;100649.97;;;15.71;71.47
2339;BME280;1180;51.438;6.978;2023-04-29T13:25:09;100636.34;;;15.80;72.06
2339;BME280;1180;51.438;6.978;2023-04-29T13:27:36;100636.84;;;15.85;71.86
2339;BME280;1180;51.438;6.978;2023-04-29T13:30:06;100643.44;;;15.90;72.36